Dades meteomassalio
Diari Summary for Octubre 13, 2017 Units:  English    Metric   Both
« Previous Day
Next Day »
Diari Semanal Mensual Anual Personalitzat
  Maxima: Minima: Mijana:
Temperatura: TemperatureC °F 7.8 °F 15.9 °F
Rosada: DewpointC °F 6.1 °F 11.3 °F
Humitat: Humidity % 47 % 75 %
Velocitat del vent: WindSpeedKMH mph 0.0 mph 3.2 mph
Racha vent: WindSpeedGustKMH mph - -
Vent:- - SSW
Pressio: PressurehPa in 1024.6 in -
Pluja: 0.0 in    
Historical Graphs
 
 
Tabular Data for Octubre 13, 2017
Time Temperature Dew Point Pressure Wind Wind Speed Wind Gust Humidity Rainfall Rate (Hourly) solar Conditions
TemperatureC °F DewpointC °F PressurehPa in Calm     Humidity % HourlyPrecipMM in SolarRadiationWatts/m^2 W/m2 Conditions
00:02 12.2 °F 9.1 °F 1028.0 in Calm     81 % 0.0 in 0.0 W/m2 CLR
00:07 12.2 °F 9.1 °F 1028.0 in Calm     81 % 0.0 in 0.0 W/m2 CLR
00:12 12.2 °F 9.1 °F 1028.0 in Calm     81 % 0.0 in 0.0 W/m2 CLR
00:17 12.2 °F 9.2 °F 1028.0 in Calm     82 % 0.0 in 0.0 W/m2 CLR
00:22 11.7 °F 8.7 °F 1028.0 in Calm     82 % 0.0 in 0.0 W/m2 CLR
00:27 11.7 °F 8.7 °F 1028.0 in Calm     82 % 0.0 in 0.0 W/m2 CLR
00:32 11.7 °F 8.7 °F 1028.0 in Calm     82 % 0.0 in 0.0 W/m2 CLR
00:37 11.1 °F 8.2 °F 1028.0 in Calm     82 % 0.0 in 0.0 W/m2 CLR
00:42 11.1 °F 8.3 °F 1028.0 in Calm     83 % 0.0 in 0.0 W/m2 CLR
00:47 11.1 °F 8.3 °F 1028.0 in Calm     83 % 0.0 in 0.0 W/m2 CLR
00:52 11.1 °F 8.5 °F 1028.0 in Calm     84 % 0.0 in 0.0 W/m2 CLR
00:57 11.1 °F 8.5 °F 1028.0 in Calm     84 % 0.0 in 0.0 W/m2 CLR
01:02 11.1 °F 8.5 °F 1028.0 in Calm     84 % 0.0 in 0.0 W/m2 CLR
01:07 11.1 °F 8.5 °F 1028.0 in Calm     84 % 0.0 in 0.0 W/m2 CLR
01:12 11.1 °F 8.7 °F 1028.0 in Calm     85 % 0.0 in 0.0 W/m2 CLR
01:17 11.1 °F 8.7 °F 1028.0 in Calm     85 % 0.0 in 0.0 W/m2 CLR
01:22 11.1 °F 8.7 °F 1028.0 in Calm     85 % 0.0 in 0.0 W/m2 CLR
01:27 10.6 °F 8.1 °F 1028.0 in Calm     85 % 0.0 in 0.0 W/m2 CLR
01:32 10.6 °F 7.9 °F 1028.0 in Calm     84 % 0.0 in 0.0 W/m2 CLR
01:37 10.6 °F 7.9 °F 1028.0 in Calm     84 % 0.0 in 0.0 W/m2 CLR
01:42 10.0 °F 7.6 °F 1028.0 in Calm     85 % 0.0 in 0.0 W/m2 CLR
01:47 10.6 °F 8.3 °F 1028.0 in Calm     86 % 0.0 in 0.0 W/m2 CLR
01:52 10.6 °F 8.3 °F 1028.0 in Calm     86 % 0.0 in 0.0 W/m2 CLR
01:57 10.6 °F 8.3 °F 1028.0 in Calm     86 % 0.0 in 0.0 W/m2 CLR
02:02 10.0 °F 7.8 °F 1028.0 in Calm     86 % 0.0 in 0.0 W/m2 CLR
02:07 10.0 °F 7.9 °F 1028.0 in Calm     87 % 0.0 in 0.0 W/m2 CLR
02:12 10.0 °F 7.8 °F 1028.0 in Calm     86 % 0.0 in 0.0 W/m2 CLR
02:17 9.4 °F 7.4 °F 1028.0 in Calm     87 % 0.0 in 0.0 W/m2 CLR
02:22 9.4 °F 7.4 °F 1028.0 in Calm     87 % 0.0 in 0.0 W/m2 CLR
02:27 9.4 °F 7.4 °F 1028.0 in Calm     87 % 0.0 in 0.0 W/m2 CLR
02:32 9.4 °F 7.4 °F 1028.0 in Calm     87 % 0.0 in 0.0 W/m2 CLR
02:37 9.4 °F 7.4 °F 1028.0 in Calm     87 % 0.0 in 0.0 W/m2 CLR
02:42 9.4 °F 7.4 °F 1028.0 in Calm     87 % 0.0 in 0.0 W/m2 CLR
02:47 9.4 °F 7.4 °F 1028.0 in Calm     87 % 0.0 in 0.0 W/m2 CLR
02:52 9.4 °F 7.4 °F 1028.0 in Calm     87 % 0.0 in 0.0 W/m2 CLR
02:57 9.4 °F 7.4 °F 1028.0 in Calm     87 % 0.0 in 0.0 W/m2 CLR
03:02 9.4 °F 7.4 °F 1028.0 in Calm     87 % 0.0 in 0.0 W/m2 CLR
03:07 9.4 °F 7.4 °F 1028.0 in Calm     87 % 0.0 in 0.0 W/m2 CLR
03:12 9.4 °F 7.6 °F 1028.0 in Calm     88 % 0.0 in 0.0 W/m2 CLR
03:17 9.4 °F 7.6 °F 1028.0 in Calm     88 % 0.0 in 0.0 W/m2 CLR
03:22 8.9 °F 7.0 °F 1028.0 in Calm     88 % 0.0 in 0.0 W/m2 CLR
03:27 8.9 °F 7.0 °F 1028.0 in Calm     88 % 0.0 in 0.0 W/m2 CLR
03:32 8.9 °F 7.0 °F 1028.0 in Calm     88 % 0.0 in 0.0 W/m2 CLR
03:37 8.9 °F 7.0 °F 1028.0 in Calm     88 % 0.0 in 0.0 W/m2 CLR
03:43 9.4 °F 7.6 °F 1028.0 in Calm     88 % 0.0 in 0.0 W/m2 CLR
03:48 8.9 °F 7.0 °F 1028.0 in Calm     88 % 0.0 in 0.0 W/m2 CLR
03:53 8.9 °F 7.0 °F 1028.0 in Calm     88 % 0.0 in 0.0 W/m2 CLR
03:58 8.9 °F 7.0 °F 1028.0 in Calm     88 % 0.0 in 0.0 W/m2 CLR
04:03 8.9 °F 7.0 °F 1028.0 in Calm     88 % 0.0 in 0.0 W/m2 CLR
04:08 8.9 °F 7.0 °F 1028.0 in Calm     88 % 0.0 in 0.0 W/m2 CLR
04:13 8.9 °F 7.0 °F 1028.0 in Calm     88 % 0.0 in 0.0 W/m2 CLR
04:18 8.9 °F 7.0 °F 1028.0 in Calm     88 % 0.0 in 0.0 W/m2 CLR
04:23 8.9 °F 7.2 °F 1028.0 in Calm     89 % 0.0 in 0.0 W/m2 CLR
04:28 8.9 °F 7.2 °F 1028.0 in Calm     89 % 0.0 in 0.0 W/m2 CLR
04:33 8.9 °F 7.2 °F 1028.0 in Calm     89 % 0.0 in 0.0 W/m2 CLR
04:38 8.9 °F 7.2 °F 1028.0 in Calm     89 % 0.0 in 0.0 W/m2 CLR
04:43 8.9 °F 7.2 °F 1028.0 in Calm     89 % 0.0 in 0.0 W/m2 CLR
04:48 8.9 °F 7.2 °F 1028.0 in Calm     89 % 0.0 in 0.0 W/m2 CLR
04:53 8.3 °F 6.6 °F 1028.0 in Calm     89 % 0.0 in 0.0 W/m2 CLR
04:58 8.3 °F 6.6 °F 1028.0 in Calm     89 % 0.0 in 0.0 W/m2 CLR
05:03 8.3 °F 6.6 °F 1028.0 in Calm     89 % 0.0 in 0.0 W/m2 CLR
05:08 8.3 °F 6.4 °F 1028.0 in Calm     88 % 0.0 in 0.0 W/m2 CLR
05:13 8.3 °F 6.4 °F 1028.0 in Calm     88 % 0.0 in 0.0 W/m2 CLR
05:18 7.8 °F 6.1 °F 1028.0 in Calm     89 % 0.0 in 0.0 W/m2 CLR
05:23 7.8 °F 6.1 °F 1028.0 in Calm     89 % 0.0 in 0.0 W/m2 CLR
05:28 7.8 °F 6.1 °F 1028.0 in Calm     89 % 0.0 in 0.0 W/m2 CLR
05:33 7.8 °F 6.1 °F 1028.0 in Calm     89 % 0.0 in 0.0 W/m2 CLR
05:38 7.8 °F 6.1 °F 1028.0 in Calm     89 % 0.0 in 0.0 W/m2 CLR
05:43 7.8 °F 6.1 °F 1028.0 in Calm     89 % 0.0 in 0.0 W/m2 CLR
05:48 7.8 °F 6.1 °F 1028.0 in Calm     89 % 0.0 in 0.0 W/m2 CLR
05:53 7.8 °F 6.1 °F 1028.0 in Calm     89 % 0.0 in 0.0 W/m2 CLR
05:58 7.8 °F 6.1 °F 1028.0 in Calm     89 % 0.0 in 0.0 W/m2 CLR
06:03 7.8 °F 6.1 °F 1028.0 in Calm     89 % 0.0 in 0.0 W/m2 CLR
06:08 7.8 °F 6.1 °F 1028.3 in Calm     89 % 0.0 in 0.0 W/m2 CLR
06:13 8.3 °F 6.6 °F 1028.0 in Calm     89 % 0.0 in 0.0 W/m2 CLR
06:18 8.9 °F 7.2 °F 1028.3 in Calm     89 % 0.0 in 0.0 W/m2 CLR
06:23 8.9 °F 7.3 °F 1028.3 in Calm     90 % 0.0 in 0.0 W/m2 CLR
06:28 9.4 °F 7.9 °F 1028.3 in Calm     90 % 0.0 in 0.0 W/m2 CLR
06:33 9.4 °F 7.7 °F 1028.0 in Calm     89 % 0.0 in 0.0 W/m2 CLR
06:38 9.4 °F 7.7 °F 1028.3 in Calm     89 % 0.0 in 0.0 W/m2 CLR
06:43 9.4 °F 7.7 °F 1028.0 in Calm     89 % 0.0 in 0.0 W/m2 CLR
06:48 9.4 °F 7.7 °F 1028.3 in Calm     89 % 0.0 in 0.0 W/m2 CLR
06:53 9.4 °F 7.7 °F 1028.3 in Calm     89 % 0.0 in 0.0 W/m2 CLR
06:58 9.4 °F 7.7 °F 1028.3 in Calm     89 % 0.0 in 0.0 W/m2 CLR
07:03 10.0 °F 8.4 °F 1028.3 in Calm     90 % 0.0 in 0.0 W/m2 CLR
07:08 10.0 °F 8.3 °F 1028.3 in Calm     89 % 0.0 in 0.0 W/m2 CLR
07:13 10.0 °F 8.3 °F 1028.3 in Calm     89 % 0.0 in 0.0 W/m2 CLR
07:18 10.0 °F 8.3 °F 1028.3 in Calm     89 % 0.0 in 0.0 W/m2 CLR
07:23 10.0 °F 8.3 °F 1028.3 in Calm     89 % 0.0 in 0.0 W/m2 CLR
07:28 10.6 °F 8.8 °F 1028.3 in Calm     89 % 0.0 in 0.0 W/m2 CLR
07:33 10.6 °F 8.8 °F 1028.0 in Calm     89 % 0.0 in 0.0 W/m2 CLR
07:39 10.6 °F 8.8 °F 1028.0 in Calm     89 % 0.0 in 0.0 W/m2 CLR
07:44 10.6 °F 8.8 °F 1028.3 in Calm     89 % 0.0 in 0.0 W/m2 CLR
07:49 10.6 °F 8.8 °F 1028.0 in Calm     89 % 0.0 in 0.0 W/m2 CLR
07:54 10.6 °F 8.7 °F 1028.0 in Calm     88 % 0.0 in 0.0 W/m2 CLR
07:59 10.6 °F 8.5 °F 1028.0 in Calm     87 % 0.0 in 0.0 W/m2 CLR
08:04 10.6 °F 8.5 °F 1028.3 in Calm     87 % 0.0 in 0.0 W/m2 OVC
08:09 10.6 °F 8.7 °F 1028.3 in Calm     88 % 0.0 in 0.0 W/m2 OVC
08:14 10.6 °F 8.7 °F 1028.3 in Calm     88 % 0.0 in 5.0 W/m2 OVC
08:19 10.0 °F 8.1 °F 1028.3 in Calm     88 % 0.0 in 11.0 W/m2 BKN
08:24 10.0 °F 8.1 °F 1028.3 in Calm     88 % 0.0 in 16.0 W/m2 BKN
08:29 10.0 °F 8.1 °F 1028.3 in Calm     88 % 0.0 in 21.0 W/m2 BKN
08:34 10.0 °F 8.1 °F 1028.3 in Calm     88 % 0.0 in 26.0 W/m2 BKN
08:39 10.0 °F 8.3 °F 1028.3 in Calm     89 % 0.0 in 33.0 W/m2 BKN
08:44 10.0 °F 8.1 °F 1028.3 in Calm     88 % 0.0 in 40.0 W/m2 BKN
08:49 10.0 °F 8.1 °F 1028.3 in Calm     88 % 0.0 in 44.0 W/m2 BKN
08:54 10.0 °F 8.3 °F 1028.7 in Calm     89 % 0.0 in 40.0 W/m2 BKN
08:59 10.0 °F 8.1 °F 1028.7 in Calm     88 % 0.0 in 46.0 W/m2 SCT
09:04 10.0 °F 8.1 °F 1028.7 in Calm     88 % 0.0 in 72.0 W/m2 FEW
09:09 10.0 °F 8.1 °F 1028.7 in Calm     88 % 0.0 in 58.0 W/m2 SCT
09:14 10.6 °F 8.8 °F 1028.7 in Calm     89 % 0.0 in 53.0 W/m2 FEW
09:19 10.6 °F 8.7 °F 1028.7 in Calm     88 % 0.0 in 62.0 W/m2 SCT
09:24 10.6 °F 8.7 °F 1028.7 in Calm     88 % 0.0 in 88.0 W/m2 FEW
09:29 10.6 °F 8.7 °F 1028.7 in Calm     88 % 0.0 in 93.0 W/m2 CLR
09:34 10.6 °F 8.7 °F 1029.0 in Calm     88 % 0.0 in 107.0 W/m2 CLR
09:39 10.6 °F 8.7 °F 1029.0 in Calm     88 % 0.0 in 176.0 W/m2 CLR
09:40 10.6 °F 8.7 °F 1029.0 in Calm     88 % 0.0 in 181.0 W/m2 CLR
09:45 11.1 °F 9.1 °F 1029.0 in Calm     87 % 0.0 in 197.0 W/m2 CLR
09:50 11.7 °F 9.4 °F 1029.0 in Calm     86 % 0.0 in 214.0 W/m2 CLR
09:55 12.2 °F 9.6 °F 1029.0 in Calm     84 % 0.0 in 232.0 W/m2 CLR
10:00 12.8 °F 10.2 °F 1029.0 in Calm     84 % 0.0 in 246.0 W/m2 CLR
10:05 13.3 °F 10.3 °F 1029.0 in Calm     82 % 0.0 in 260.0 W/m2 CLR
10:10 13.3 °F 9.9 °F 1029.0 in Calm     80 % 0.0 in 272.0 W/m2 CLR
10:15 13.9 °F 10.3 °F 1029.0 in Calm     79 % 0.0 in 290.0 W/m2 CLR
10:20 14.4 °F 10.7 °F 1029.0 in Calm     78 % 0.0 in 302.0 W/m2 CLR
10:25 14.4 °F 10.4 °F 1029.0 in Calm     77 % 0.0 in 316.0 W/m2 CLR
10:32 15.0 °F 11.0 °F 1028.7 in Calm     77 % 0.0 in 332.0 W/m2 CLR
10:37 15.0 °F 10.6 °F 1028.7 in Calm     75 % 0.0 in 345.0 W/m2 CLR
10:42 15.6 °F 11.3 °F 1028.7 in Calm     76 % 0.0 in 357.0 W/m2 CLR
10:47 16.1 °F 11.7 °F 1029.0 in Calm     75 % 0.0 in 369.0 W/m2 CLR
10:52 16.1 °F 11.7 °F 1028.7 in Calm     75 % 0.0 in 385.0 W/m2 CLR
10:57 16.1 °F 11.5 °F 1028.7 in Calm     74 % 0.0 in 397.0 W/m2 CLR
11:02 16.7 °F 12.0 °F 1028.7 in Calm     74 % 0.0 in 411.0 W/m2 CLR
11:08 16.7 °F 12.0 °F 1028.7 in Calm     74 % 0.0 in 422.0 W/m2 CLR
11:13 17.2 °F 12.3 °F 1028.7 in Calm     73 % 0.0 in 436.0 W/m2 CLR
11:18 17.2 °F 12.6 °F 1028.7 in Calm     74 % 0.0 in 446.0 W/m2 CLR
11:23 17.8 °F 12.9 °F 1028.7 in Calm     73 % 0.0 in 459.0 W/m2 CLR
11:29 17.8 °F 12.7 °F 1028.7 in Calm     72 % 0.0 in 469.0 W/m2 CLR
11:34 18.3 °F 13.2 °F 1028.7 in NNW 1.9 mph 1.9 mph 72 % 0.0 in 483.0 W/m2 CLR
11:39 18.3 °F 13.4 °F 1028.7 in NNW 3.7 mph 3.7 mph 73 % 0.0 in 492.0 W/m2 CLR
11:44 18.3 °F 13.4 °F 1028.7 in North 4.8 mph 4.8 mph 73 % 0.0 in 499.0 W/m2 CLR
11:49 18.9 °F 13.9 °F 1028.7 in North 7.4 mph 7.4 mph 73 % 0.0 in 510.0 W/m2 CLR
11:54 18.9 °F 13.9 °F 1028.7 in North 1.6 mph   73 % 0.0 in 519.0 W/m2 CLR
11:59 19.4 °F 14.3 °F 1028.3 in NNW 3.7 mph   72 % 0.0 in 527.0 W/m2 CLR
12:04 20.0 °F 14.8 °F 1028.3 in North 1.9 mph   72 % 0.0 in 536.0 W/m2 CLR
12:09 20.0 °F 14.3 °F 1028.3 in NW 5.6 mph 5.6 mph 70 % 0.0 in 543.0 W/m2 CLR
12:14 20.6 °F 15.1 °F 1028.3 in Calm     71 % 0.0 in 550.0 W/m2 CLR
12:19 20.6 °F 14.9 °F 1028.3 in North 1.9 mph 1.9 mph 70 % 0.0 in 557.0 W/m2 CLR
12:24 21.1 °F 15.0 °F 1028.3 in NNW 3.7 mph   68 % 0.0 in 564.0 W/m2 CLR
12:29 21.1 °F 14.3 °F 1028.3 in North 3.7 mph 3.7 mph 65 % 0.0 in 570.0 W/m2 CLR
12:34 21.7 °F 14.8 °F 1028.0 in NNW 1.9 mph 1.9 mph 65 % 0.0 in 575.0 W/m2 CLR
12:39 21.1 °F 13.8 °F 1028.0 in NE 3.7 mph 3.7 mph 63 % 0.0 in 584.0 W/m2 CLR
12:44 21.7 °F 14.1 °F 1028.0 in North 3.7 mph 3.7 mph 62 % 0.0 in 587.0 W/m2 CLR
12:49 22.2 °F 14.1 °F 1028.0 in NNW 5.6 mph   60 % 0.0 in 594.0 W/m2 CLR
12:54 22.2 °F 14.1 °F 1028.0 in North 7.4 mph 7.4 mph 60 % 0.0 in 596.0 W/m2 CLR
12:59 22.2 °F 13.8 °F 1028.0 in North 5.6 mph 5.6 mph 59 % 0.0 in 599.0 W/m2 CLR
13:04 22.8 °F 14.6 °F 1027.7 in NNW 13.0 mph 13.0 mph 60 % 0.0 in 605.0 W/m2 CLR
13:09 22.2 °F 14.1 °F 1027.7 in NNW 4.8 mph 4.8 mph 60 % 0.0 in 606.0 W/m2 CLR
13:14 22.2 °F 14.3 °F 1027.7 in North 8.0 mph 8.0 mph 61 % 0.0 in 612.0 W/m2 CLR
13:19 22.2 °F 14.3 °F 1027.7 in NNW 5.6 mph 5.6 mph 61 % 0.0 in 613.0 W/m2 CLR
13:24 22.8 °F 15.1 °F 1027.3 in North 3.7 mph 3.7 mph 62 % 0.0 in 613.0 W/m2 CLR
13:29 22.8 °F 15.4 °F 1027.3 in NNW 9.7 mph 9.7 mph 63 % 0.0 in 615.0 W/m2 CLR
13:34 22.8 °F 15.4 °F 1027.3 in Calm   0.2 mph 63 % 0.0 in 619.0 W/m2 CLR
13:39 22.8 °F 15.4 °F 1027.0 in NW 9.3 mph 9.3 mph 63 % 0.0 in 619.0 W/m2 CLR
13:44 23.3 °F 15.9 °F 1027.0 in North 5.6 mph 5.6 mph 63 % 0.0 in 619.0 W/m2 CLR
13:49 23.3 °F 15.4 °F 1027.0 in Calm   0.2 mph 61 % 0.0 in 619.0 W/m2 CLR
13:54 23.3 °F 15.1 °F 1027.0 in NW 5.6 mph   60 % 0.0 in 621.0 W/m2 CLR
13:59 23.9 °F 15.4 °F 1026.6 in Calm     59 % 0.0 in 619.0 W/m2 CLR
14:04 23.9 °F 15.4 °F 1026.6 in North 4.8 mph 4.8 mph 59 % 0.0 in 617.0 W/m2 CLR
14:09 23.9 °F 15.4 °F 1026.6 in NNW 13.0 mph 13.0 mph 59 % 0.0 in 615.0 W/m2 CLR
14:14 23.9 °F 15.4 °F 1026.3 in NNW 9.7 mph 9.7 mph 59 % 0.0 in 613.0 W/m2 CLR
14:19 23.9 °F 15.1 °F 1026.3 in North 9.7 mph 9.7 mph 58 % 0.0 in 612.0 W/m2 CLR
14:25 24.4 °F 15.7 °F 1026.3 in NNW 11.1 mph 11.1 mph 58 % 0.0 in 610.0 W/m2 CLR
14:30 24.4 °F 15.7 °F 1026.3 in NW 14.8 mph 14.8 mph 58 % 0.0 in 606.0 W/m2 CLR
14:35 24.4 °F 15.9 °F 1026.3 in NW 14.8 mph 14.8 mph 59 % 0.0 in 605.0 W/m2 CLR
14:40 25.0 °F 16.4 °F 1026.0 in WNW 5.6 mph 5.6 mph 59 % 0.0 in 599.0 W/m2 CLR
14:45 25.0 °F 16.2 °F 1026.0 in WNW 14.8 mph 14.8 mph 58 % 0.0 in 596.0 W/m2 CLR
14:50 25.0 °F 16.2 °F 1026.0 in NNW 7.4 mph 7.4 mph 58 % 0.0 in 594.0 W/m2 CLR
14:55 25.6 °F 16.7 °F 1026.0 in North 7.4 mph 7.4 mph 58 % 0.0 in 589.0 W/m2 CLR
15:00 25.6 °F 16.7 °F 1026.0 in NW 18.5 mph 18.5 mph 58 % 0.0 in 582.0 W/m2 CLR
15:05 25.6 °F 16.4 °F 1025.6 in NW 14.8 mph 14.8 mph 57 % 0.0 in 575.0 W/m2 CLR
15:10 25.6 °F 16.1 °F 1025.6 in NNW 14.8 mph 14.8 mph 56 % 0.0 in 568.0 W/m2 CLR
15:15 26.1 °F 16.7 °F 1025.6 in NNW 18.5 mph 18.5 mph 56 % 0.0 in 563.0 W/m2 CLR
15:20 26.1 °F 16.4 °F 1025.6 in NNW 20.4 mph 20.4 mph 55 % 0.0 in 552.0 W/m2 CLR
15:25 26.1 °F 16.1 °F 1025.6 in NNW 9.3 mph 9.3 mph 54 % 0.0 in 543.0 W/m2 CLR
15:30 26.7 °F 16.3 °F 1025.3 in NNW 14.8 mph 14.8 mph 53 % 0.0 in 538.0 W/m2 CLR
15:35 26.7 °F 16.0 °F 1025.3 in NW 18.5 mph 18.5 mph 52 % 0.0 in 529.0 W/m2 CLR
15:40 26.7 °F 16.0 °F 1025.3 in NW 16.7 mph 16.7 mph 52 % 0.0 in 522.0 W/m2 CLR
15:45 26.7 °F 16.0 °F 1025.3 in NW 13.0 mph 13.0 mph 52 % 0.0 in 510.0 W/m2 CLR
15:50 26.7 °F 16.0 °F 1025.3 in NW 12.9 mph 12.9 mph 52 % 0.0 in 499.0 W/m2 CLR
15:55 27.2 °F 16.2 °F 1025.3 in NNW 16.7 mph 16.7 mph 51 % 0.0 in 492.0 W/m2 CLR
16:00 27.8 °F 16.1 °F 1025.3 in NNE 20.4 mph 20.4 mph 49 % 0.0 in 485.0 W/m2 CLR
16:05 27.8 °F 16.1 °F 1024.9 in NNE 16.7 mph 16.7 mph 49 % 0.0 in 475.0 W/m2 CLR
16:10 27.8 °F 15.8 °F 1024.9 in NE 14.8 mph 14.8 mph 48 % 0.0 in 461.0 W/m2 CLR
16:15 27.8 °F 15.8 °F 1024.9 in NNE 13.0 mph 13.0 mph 48 % 0.0 in 448.0 W/m2 CLR
16:20 27.2 °F 15.3 °F 1024.9 in NNE 7.4 mph 7.4 mph 48 % 0.0 in 438.0 W/m2 CLR
16:25 27.2 °F 14.9 °F 1024.9 in North 14.8 mph 14.8 mph 47 % 0.0 in 429.0 W/m2 CLR
16:30 27.8 °F 15.4 °F 1024.9 in NNW 9.7 mph 9.7 mph 47 % 0.0 in 415.0 W/m2 CLR
16:35 27.2 °F 14.9 °F 1024.9 in North 16.7 mph 16.7 mph 47 % 0.0 in 404.0 W/m2 CLR
16:40 27.2 °F 15.6 °F 1024.9 in NNE 16.7 mph 16.7 mph 49 % 0.0 in 390.0 W/m2 CLR
16:45 27.2 °F 15.3 °F 1024.9 in NNE 16.7 mph 16.7 mph 48 % 0.0 in 380.0 W/m2 CLR
16:50 27.2 °F 15.3 °F 1024.6 in North 13.0 mph 13.0 mph 48 % 0.0 in 364.0 W/m2 CLR
16:55 26.7 °F 15.1 °F 1024.6 in NNE 8.0 mph 8.0 mph 49 % 0.0 in 350.0 W/m2 CLR
17:00 26.7 °F 15.4 °F 1024.6 in NNE 14.8 mph 14.8 mph 50 % 0.0 in 336.0 W/m2 CLR
17:05 26.7 °F 15.7 °F 1024.6 in North 14.8 mph 14.8 mph 51 % 0.0 in 323.0 W/m2 CLR
17:10 26.7 °F 16.0 °F 1024.6 in NNE 14.5 mph 14.5 mph 52 % 0.0 in 313.0 W/m2 CLR
17:15 26.7 °F 15.7 °F 1024.6 in NNE 14.8 mph 14.8 mph 51 % 0.0 in 294.0 W/m2 CLR
17:20 26.7 °F 16.0 °F 1024.6 in North 9.7 mph 9.7 mph 52 % 0.0 in 283.0 W/m2 CLR
17:25 26.7 °F 16.3 °F 1024.6 in NNE 9.3 mph 9.3 mph 53 % 0.0 in 269.0 W/m2 CLR
17:30 26.1 °F 15.5 °F 1024.6 in North 3.7 mph 3.7 mph 52 % 0.0 in 251.0 W/m2 CLR
17:35 26.1 °F 16.1 °F 1024.6 in NE 7.4 mph 7.4 mph 54 % 0.0 in 239.0 W/m2 CLR
17:40 26.1 °F 16.1 °F 1024.6 in North 7.4 mph 7.4 mph 54 % 0.0 in 225.0 W/m2 CLR
17:45 25.6 °F 15.8 °F 1024.6 in NNE 1.9 mph   55 % 0.0 in 209.0 W/m2 CLR
17:50 25.6 °F 16.1 °F 1024.6 in NNE 8.0 mph 8.0 mph 56 % 0.0 in 193.0 W/m2 CLR
17:55 25.6 °F 16.4 °F 1024.6 in NNE 13.0 mph 13.0 mph 57 % 0.0 in 174.0 W/m2 CLR
18:00 25.0 °F 16.4 °F 1024.6 in ENE 13.0 mph 13.0 mph 59 % 0.0 in 160.0 W/m2 CLR
18:05 25.0 °F 16.7 °F 1024.6 in North 13.0 mph 13.0 mph 60 % 0.0 in 144.0 W/m2 CLR
18:10 24.4 °F 16.4 °F 1024.6 in NE 14.8 mph 14.8 mph 61 % 0.0 in 130.0 W/m2 CLR
18:15 24.4 °F 16.7 °F 1024.6 in NNE 11.1 mph 11.1 mph 62 % 0.0 in 113.0 W/m2 CLR
18:25 23.9 °F 16.4 °F 1024.6 in NNE 13.0 mph 13.0 mph 63 % 0.0 in 88.0 W/m2 CLR
18:30 23.9 °F 16.4 °F 1024.6 in NNE 11.1 mph 11.1 mph 63 % 0.0 in 76.0 W/m2 FEW
18:35 23.9 °F 16.7 °F 1024.9 in NNE 7.4 mph 7.4 mph 64 % 0.0 in 60.0 W/m2 SCT
18:40 23.3 °F 16.1 °F 1024.9 in North 7.4 mph 7.4 mph 64 % 0.0 in 51.0 W/m2 SCT
18:45 23.3 °F 16.4 °F 1024.9 in NNE 9.3 mph 9.3 mph 65 % 0.0 in 42.0 W/m2 BKN
18:50 23.3 °F 16.4 °F 1024.9 in North 4.8 mph 4.8 mph 65 % 0.0 in 35.0 W/m2 BKN
18:55 22.8 °F 16.1 °F 1024.9 in NNE 5.6 mph 5.6 mph 66 % 0.0 in 28.0 W/m2 BKN
19:00 22.2 °F 15.8 °F 1024.9 in NNW 5.6 mph 5.6 mph 67 % 0.0 in 21.0 W/m2 BKN
19:05 21.7 °F 15.3 °F 1024.9 in NE 9.3 mph 9.3 mph 67 % 0.0 in 16.0 W/m2 BKN
19:10 21.7 °F 15.5 °F 1024.9 in NNE 7.4 mph 7.4 mph 68 % 0.0 in 12.0 W/m2 BKN
19:15 21.1 °F 15.0 °F 1024.9 in NE 9.3 mph 9.3 mph 68 % 0.0 in 9.0 W/m2 BKN
19:20 20.6 °F 14.7 °F 1025.3 in NNE 11.1 mph 11.1 mph 69 % 0.0 in 5.0 W/m2 OVC
19:25 20.6 °F 14.7 °F 1025.3 in Calm     69 % 0.0 in 0.0 W/m2 OVC
19:30 20.0 °F 14.1 °F 1025.3 in Calm     69 % 0.0 in 0.0 W/m2 OVC
19:35 20.0 °F 14.3 °F 1025.3 in Calm     70 % 0.0 in 0.0 W/m2 CLR
19:40 19.4 °F 14.1 °F 1025.3 in NE 9.3 mph 9.3 mph 71 % 0.0 in 0.0 W/m2 CLR
19:45 19.4 °F 14.1 °F 1025.3 in Calm     71 % 0.0 in 0.0 W/m2 CLR
19:50 19.4 °F 14.3 °F 1025.6 in Calm     72 % 0.0 in 0.0 W/m2 CLR
19:55 19.4 °F 14.5 °F 1025.6 in NE 9.3 mph 9.3 mph 73 % 0.0 in 0.0 W/m2 CLR
20:00 19.4 °F 14.5 °F 1025.6 in NNE 7.4 mph 7.4 mph 73 % 0.0 in 0.0 W/m2 CLR
20:05 18.9 °F 14.2 °F 1025.6 in Calm     74 % 0.0 in 0.0 W/m2 CLR
20:10 18.9 °F 14.2 °F 1025.6 in NE 9.7 mph 9.7 mph 74 % 0.0 in 0.0 W/m2 CLR
20:15 18.9 °F 14.3 °F 1025.6 in NNE 3.7 mph   75 % 0.0 in 0.0 W/m2 CLR
20:17 18.9 °F 14.3 °F 1025.6 in Calm     75 % 0.0 in 0.0 W/m2 CLR
20:22 18.9 °F 14.3 °F 1025.6 in North 1.9 mph 1.9 mph 75 % 0.0 in 0.0 W/m2 CLR
20:27 18.9 °F 14.3 °F 1026.0 in North 3.7 mph 3.7 mph 75 % 0.0 in 0.0 W/m2 CLR
20:32 18.3 °F 14.0 °F 1025.6 in Calm     76 % 0.0 in 0.0 W/m2 CLR
20:37 17.8 °F 13.5 °F 1026.0 in Calm     76 % 0.0 in 0.0 W/m2 CLR
20:42 17.8 °F 13.5 °F 1026.0 in Calm     76 % 0.0 in 0.0 W/m2 CLR
20:47 17.2 °F 12.9 °F 1026.0 in Calm     76 % 0.0 in 0.0 W/m2 CLR
20:52 16.7 °F 12.4 °F 1026.0 in Calm     76 % 0.0 in 0.0 W/m2 CLR
20:57 16.7 °F 12.4 °F 1026.0 in Calm     76 % 0.0 in 0.0 W/m2 CLR
21:02 16.1 °F 11.9 °F 1026.0 in Calm     76 % 0.0 in 0.0 W/m2 CLR
21:07 16.1 °F 11.9 °F 1026.0 in Calm     76 % 0.0 in 0.0 W/m2 CLR
21:12 16.1 °F 12.1 °F 1026.0 in Calm     77 % 0.0 in 0.0 W/m2 CLR
21:17 15.6 °F 11.6 °F 1026.0 in Calm     77 % 0.0 in 0.0 W/m2 CLR
21:22 15.6 °F 11.6 °F 1026.0 in Calm     77 % 0.0 in 0.0 W/m2 CLR
21:27 15.0 °F 11.0 °F 1026.0 in Calm     77 % 0.0 in 0.0 W/m2 CLR
21:32 15.0 °F 11.0 °F 1026.3 in Calm     77 % 0.0 in 0.0 W/m2 CLR
21:37 15.0 °F 11.0 °F 1026.3 in Calm     77 % 0.0 in 0.0 W/m2 CLR
21:42 15.0 °F 11.2 °F 1026.3 in Calm     78 % 0.0 in 0.0 W/m2 CLR
21:47 15.0 °F 11.2 °F 1026.3 in Calm     78 % 0.0 in 0.0 W/m2 CLR
21:52 14.4 °F 10.7 °F 1026.3 in Calm     78 % 0.0 in 0.0 W/m2 CLR
21:57 14.4 °F 10.8 °F 1026.3 in Calm     79 % 0.0 in 0.0 W/m2 CLR
22:02 14.4 °F 10.8 °F 1026.3 in Calm     79 % 0.0 in 0.0 W/m2 CLR
22:07 14.4 °F 10.8 °F 1026.6 in Calm     79 % 0.0 in 0.0 W/m2 CLR
22:12 14.4 °F 11.1 °F 1026.6 in Calm     80 % 0.0 in 0.0 W/m2 CLR
22:13 14.4 °F 11.1 °F 1026.6 in Calm     80 % 0.0 in 0.0 W/m2 CLR
22:18 14.4 °F 11.1 °F 1026.6 in Calm     80 % 0.0 in 0.0 W/m2 CLR
22:23 14.4 °F 11.1 °F 1026.6 in Calm     80 % 0.0 in 0.0 W/m2 CLR
22:28 14.4 °F 10.8 °F 1026.6 in Calm     79 % 0.0 in 0.0 W/m2 CLR
22:33 13.9 °F 10.5 °F 1026.6 in Calm     80 % 0.0 in 0.0 W/m2 CLR
22:38 13.9 °F 10.7 °F 1026.6 in Calm     81 % 0.0 in 0.0 W/m2 CLR
22:43 13.9 °F 10.7 °F 1026.6 in Calm     81 % 0.0 in 0.0 W/m2 CLR
22:48 13.9 °F 10.9 °F 1026.6 in Calm     82 % 0.0 in 0.0 W/m2 CLR
22:53 13.9 °F 10.7 °F 1026.6 in Calm     81 % 0.0 in 0.0 W/m2 CLR
22:58 13.9 °F 10.7 °F 1027.0 in Calm     81 % 0.0 in 0.0 W/m2 CLR
23:03 13.9 °F 10.9 °F 1027.0 in Calm     82 % 0.0 in 0.0 W/m2 CLR
23:08 13.9 °F 10.9 °F 1026.6 in Calm     82 % 0.0 in 0.0 W/m2 CLR
23:13 13.9 °F 10.9 °F 1027.0 in Calm     82 % 0.0 in 0.0 W/m2 CLR
23:18 13.9 °F 10.9 °F 1027.0 in Calm     82 % 0.0 in 0.0 W/m2 CLR
23:23 13.3 °F 10.5 °F 1027.0 in Calm     83 % 0.0 in 0.0 W/m2 CLR
23:28 13.9 °F 11.1 °F 1027.0 in Calm     83 % 0.0 in 0.0 W/m2 CLR
23:33 13.9 °F 11.2 °F 1027.0 in Calm     84 % 0.0 in 0.0 W/m2 CLR
23:38 13.3 °F 10.5 °F 1027.0 in Calm     83 % 0.0 in 0.0 W/m2 CLR
23:43 13.3 °F 10.7 °F 1027.0 in Calm     84 % 0.0 in 0.0 W/m2 CLR
23:48 13.3 °F 10.5 °F 1027.0 in Calm     83 % 0.0 in 0.0 W/m2 CLR
23:53 13.3 °F 10.5 °F 1027.0 in Calm     83 % 0.0 in 0.0 W/m2 CLR
23:58 12.8 °F 10.2 °F 1027.0 in Calm     84 % 0.0 in 0.0 W/m2 CLR
Lo Temps de Massalio
Compliments of Weather Underground - 1.25 mb